sensor_id;sensor_type;location;lat;lon;timestamp;pressure;altitude;pressure_sealevel;temperature;humidity
73338;BME280;61575;49.908;35.556;2023-12-07T00:01:53;100109.06;;;-3.53;91.05
73338;BME280;61575;49.908;35.556;2023-12-07T00:04:56;100109.84;;;-3.51;90.76
73338;BME280;61575;49.908;35.556;2023-12-07T00:07:58;100108.19;;;-3.54;91.72
73338;BME280;61575;49.908;35.556;2023-12-07T00:11:00;100116.94;;;-3.53;91.84
73338;BME280;61575;49.908;35.556;2023-12-07T00:14:02;100114.38;;;-3.55;91.60
73338;BME280;61575;49.908;35.556;2023-12-07T00:17:04;100106.22;;;-3.49;91.78
73338;BME280;61575;49.908;35.556;2023-12-07T00:20:08;100112.00;;;-3.41;91.04
73338;BME280;61575;49.908;35.556;2023-12-07T00:23:10;100110.56;;;-3.48;91.50
73338;BME280;61575;49.908;35.556;2023-12-07T00:26:12;100107.59;;;-3.40;91.44
73338;BME280;61575;49.908;35.556;2023-12-07T00:29:15;100114.28;;;-3.33;91.23
73338;BME280;61575;49.908;35.556;2023-12-07T00:32:17;100110.94;;;-3.36;91.06
73338;BME280;61575;49.908;35.556;2023-12-07T00:35:19;100104.91;;;-3.39;91.21
73338;BME280;61575;49.908;35.556;2023-12-07T00:38:24;100108.44;;;-3.40;91.84
73338;BME280;61575;49.908;35.556;2023-12-07T00:41:26;100103.84;;;-3.34;91.80
73338;BME280;61575;49.908;35.556;2023-12-07T00:44:28;100110.00;;;-3.35;91.62
73338;BME280;61575;49.908;35.556;2023-12-07T00:47:30;100105.88;;;-3.41;91.31
73338;BME280;61575;49.908;35.556;2023-12-07T00:50:32;100109.31;;;-3.39;91.68
73338;BME280;61575;49.908;35.556;2023-12-07T00:53:35;100114.22;;;-3.31;91.72
73338;BME280;61575;49.908;35.556;2023-12-07T00:56:37;100107.66;;;-3.42;91.73
73338;BME280;61575;49.908;35.556;2023-12-07T00:59:39;100101.34;;;-3.38;91.60
73338;BME280;61575;49.908;35.556;2023-12-07T01:02:42;100099.50;;;-3.35;91.74
73338;BME280;61575;49.908;35.556;2023-12-07T01:05:44;100095.75;;;-3.30;91.84
73338;BME280;61575;49.908;35.556;2023-12-07T01:08:46;100092.41;;;-3.33;91.83
73338;BME280;61575;49.908;35.556;2023-12-07T01:11:49;100082.91;;;-3.36;91.50
73338;BME280;61575;49.908;35.556;2023-12-07T01:14:51;100083.75;;;-3.35;91.58
73338;BME280;61575;49.908;35.556;2023-12-07T01:17:53;100090.28;;;-3.44;91.63
73338;BME280;61575;49.908;35.556;2023-12-07T01:20:55;100088.69;;;-3.48;92.06
73338;BME280;61575;49.908;35.556;2023-12-07T01:23:58;100094.16;;;-3.53;92.05
73338;BME280;61575;49.908;35.556;2023-12-07T01:27:14;100087.97;;;-3.52;92.52
73338;BME280;61575;49.908;35.556;2023-12-07T01:30:16;100090.28;;;-3.44;92.91
73338;BME280;61575;49.908;35.556;2023-12-07T01:33:19;100091.91;;;-3.42;92.58
73338;BME280;61575;49.908;35.556;2023-12-07T01:36:21;100089.16;;;-3.39;92.87
73338;BME280;61575;49.908;35.556;2023-12-07T01:39:23;100099.13;;;-3.47;92.67
73338;BME280;61575;49.908;35.556;2023-12-07T01:42:25;100092.81;;;-3.43;93.25
73338;BME280;61575;49.908;35.556;2023-12-07T01:45:28;100091.06;;;-3.42;92.93
73338;BME280;61575;49.908;35.556;2023-12-07T01:48:30;100093.69;;;-3.42;93.14
73338;BME280;61575;49.908;35.556;2023-12-07T01:51:32;100090.91;;;-3.39;93.12
73338;BME280;61575;49.908;35.556;2023-12-07T01:54:35;100095.66;;;-3.47;93.35
73338;BME280;61575;49.908;35.556;2023-12-07T01:57:37;100093.88;;;-3.47;93.74
73338;BME280;61575;49.908;35.556;2023-12-07T02:00:40;100096.38;;;-3.44;94.05
73338;BME280;61575;49.908;35.556;2023-12-07T02:03:42;100101.41;;;-3.39;93.72
73338;BME280;61575;49.908;35.556;2023-12-07T02:06:45;100112.06;;;-3.42;93.82
73338;BME280;61575;49.908;35.556;2023-12-07T02:09:50;100102.41;;;-3.42;93.87
73338;BME280;61575;49.908;35.556;2023-12-07T02:12:53;100094.53;;;-3.42;94.30
73338;BME280;61575;49.908;35.556;2023-12-07T02:15:58;100105.88;;;-3.41;94.24
73338;BME280;61575;49.908;35.556;2023-12-07T02:22:37;100101.63;;;-3.44;95.06
73338;BME280;61575;49.908;35.556;2023-12-07T02:25:49;100101.56;;;-3.42;94.79
73338;BME280;61575;49.908;35.556;2023-12-07T02:28:52;100094.75;;;-3.46;95.12
73338;BME280;61575;49.908;35.556;2023-12-07T02:31:55;100092.97;;;-3.46;95.35
73338;BME280;61575;49.908;35.556;2023-12-07T02:34:57;100096.38;;;-3.44;95.21
73338;BME280;61575;49.908;35.556;2023-12-07T02:38:00;100100.72;;;-3.43;95.08
73338;BME280;61575;49.908;35.556;2023-12-07T02:41:03;100099.13;;;-3.47;95.02
73338;BME280;61575;49.908;35.556;2023-12-07T02:44:06;100104.72;;;-3.54;95.52
73338;BME280;61575;49.908;35.556;2023-12-07T02:47:09;100096.78;;;-3.53;95.48
73338;BME280;61575;49.908;35.556;2023-12-07T02:50:12;100104.84;;;-3.57;95.97
73338;BME280;61575;49.908;35.556;2023-12-07T02:53:14;100101.81;;;-3.48;96.29
73338;BME280;61575;49.908;35.556;2023-12-07T02:56:16;100108.06;;;-3.51;96.16
73338;BME280;61575;49.908;35.556;2023-12-07T02:59:18;100112.25;;;-3.47;95.48
73338;BME280;61575;49.908;35.556;2023-12-07T03:02:20;100108.66;;;-3.44;95.89
73338;BME280;61575;49.908;35.556;2023-12-07T03:05:23;100109.44;;;-3.42;95.85
73338;BME280;61575;49.908;35.556;2023-12-07T03:08:25;100105.16;;;-3.45;96.05
73338;BME280;61575;49.908;35.556;2023-12-07T03:11:27;100109.63;;;-3.47;95.83
73338;BME280;61575;49.908;35.556;2023-12-07T03:14:29;100103.59;;;-3.49;95.90
73338;BME280;61575;49.908;35.556;2023-12-07T03:17:31;100109.84;;;-3.51;95.82
73338;BME280;61575;49.908;35.556;2023-12-07T03:20:34;100116.88;;;-3.52;95.82
73338;BME280;61575;49.908;35.556;2023-12-07T03:23:36;100127.16;;;-3.47;95.98
73338;BME280;61575;49.908;35.556;2023-12-07T03:26:38;100113.84;;;-3.43;96.18
73338;BME280;61575;49.908;35.556;2023-12-07T03:29:40;100112.13;;;-3.44;96.41
73338;BME280;61575;49.908;35.556;2023-12-07T03:32:42;100113.44;;;-3.54;96.54
73338;BME280;61575;49.908;35.556;2023-12-07T03:35:44;100118.31;;;-3.45;95.99
73338;BME280;61575;49.908;35.556;2023-12-07T03:38:47;100112.13;;;-3.44;96.04
73338;BME280;61575;49.908;35.556;2023-12-07T03:41:49;100116.88;;;-3.52;96.61
73338;BME280;61575;49.908;35.556;2023-12-07T03:44:51;100111.28;;;-3.44;95.85
73338;BME280;61575;49.908;35.556;2023-12-07T03:47:53;100121.56;;;-3.40;95.94
73338;BME280;61575;49.908;35.556;2023-12-07T03:50:55;100128.53;;;-3.39;95.49
73338;BME280;61575;49.908;35.556;2023-12-07T03:53:57;100118.94;;;-3.40;95.61
73338;BME280;61575;49.908;35.556;2023-12-07T03:57:00;100114.47;;;-3.38;95.25
73338;BME280;61575;49.908;35.556;2023-12-07T04:00:02;100121.44;;;-3.36;95.68
73338;BME280;61575;49.908;35.556;2023-12-07T04:03:06;100117.50;;;-3.47;95.62
73338;BME280;61575;49.908;35.556;2023-12-07T04:06:08;100125.38;;;-3.47;95.08
73338;BME280;61575;49.908;35.556;2023-12-07T04:09:10;100125.84;;;-3.57;95.28
73338;BME280;61575;49.908;35.556;2023-12-07T04:12:13;100130.00;;;-3.52;95.16
73338;BME280;61575;49.908;35.556;2023-12-07T04:15:15;100131.69;;;-3.51;95.04
73338;BME280;61575;49.908;35.556;2023-12-07T04:18:20;100132.75;;;-3.55;95.31
73338;BME280;61575;49.908;35.556;2023-12-07T04:21:22;100119.50;;;-3.52;95.11
73338;BME280;61575;49.908;35.556;2023-12-07T04:24:24;100125.72;;;-3.54;94.75
73338;BME280;61575;49.908;35.556;2023-12-07T04:27:26;100129.25;;;-3.55;95.43
73338;BME280;61575;49.908;35.556;2023-12-07T04:30:28;100127.28;;;-3.50;94.96
73338;BME280;61575;49.908;35.556;2023-12-07T04:33:30;100119.81;;;-3.39;95.00
73338;BME280;61575;49.908;35.556;2023-12-07T04:36:33;100124.72;;;-3.52;94.86
73338;BME280;61575;49.908;35.556;2023-12-07T04:39:36;100113.84;;;-3.43;94.72
73338;BME280;61575;49.908;35.556;2023-12-07T04:42:38;100126.31;;;-3.48;94.52
73338;BME280;61575;49.908;35.556;2023-12-07T04:45:40;100119.09;;;-3.43;94.22
73338;BME280;61575;49.908;35.556;2023-12-07T04:48:43;100120.66;;;-3.39;94.19
73338;BME280;61575;49.908;35.556;2023-12-07T04:51:45;100120.84;;;-3.43;94.20
73338;BME280;61575;49.908;35.556;2023-12-07T04:54:48;100121.91;;;-3.47;94.46
73338;BME280;61575;49.908;35.556;2023-12-07T04:57:51;100132.69;;;-3.53;94.80
73338;BME280;61575;49.908;35.556;2023-12-07T05:00:54;100126.31;;;-3.48;94.47
73338;BME280;61575;49.908;35.556;2023-12-07T05:03:57;100136.94;;;-3.51;94.54
73338;BME280;61575;49.908;35.556;2023-12-07T05:06:59;100127.38;;;-3.52;94.69
73338;BME280;61575;49.908;35.556;2023-12-07T05:10:03;100126.97;;;-3.43;94.77
73338;BME280;61575;49.908;35.556;2023-12-07T05:13:06;100150.72;;;-3.46;94.35
73338;BME280;61575;49.908;35.556;2023-12-07T05:16:10;100136.69;;;-3.45;94.10
73338;BME280;61575;49.908;35.556;2023-12-07T05:19:12;100149.16;;;-3.50;94.58
73338;BME280;61575;49.908;35.556;2023-12-07T05:22:14;100151.84;;;-3.51;94.95
73338;BME280;61575;49.908;35.556;2023-12-07T05:25:17;100149.41;;;-3.56;94.97
73338;BME280;61575;49.908;35.556;2023-12-07T05:28:19;100153.03;;;-3.58;95.11
73338;BME280;61575;49.908;35.556;2023-12-07T05:31:21;100159.06;;;-3.56;95.38
73338;BME280;61575;49.908;35.556;2023-12-07T05:34:23;100165.94;;;-3.54;95.02
73338;BME280;61575;49.908;35.556;2023-12-07T05:37:25;100163.31;;;-3.54;95.21
73338;BME280;61575;49.908;35.556;2023-12-07T05:40:27;100158.94;;;-3.53;95.14
73338;BME280;61575;49.908;35.556;2023-12-07T05:43:30;100169.09;;;-3.46;95.05
73338;BME280;61575;49.908;35.556;2023-12-07T05:46:35;100171.00;;;-3.49;94.70
73338;BME280;61575;49.908;35.556;2023-12-07T05:49:37;100170.69;;;-3.42;95.29
73338;BME280;61575;49.908;35.556;2023-12-07T05:52:39;100168.97;;;-3.43;94.90
73338;BME280;61575;49.908;35.556;2023-12-07T05:55:41;100171.72;;;-3.46;95.09
73338;BME280;61575;49.908;35.556;2023-12-07T05:58:44;100177.19;;;-3.50;95.26
73338;BME280;61575;49.908;35.556;2023-12-07T06:01:46;100176.13;;;-3.46;95.02
73338;BME280;61575;49.908;35.556;2023-12-07T06:04:48;100178.56;;;-3.42;94.82
73338;BME280;61575;49.908;35.556;2023-12-07T06:07:50;100178.69;;;-3.45;95.09
73338;BME280;61575;49.908;35.556;2023-12-07T06:10:52;100177.50;;;-3.38;95.15
73338;BME280;61575;49.908;35.556;2023-12-07T06:13:54;100171.72;;;-3.46;95.66
73338;BME280;61575;49.908;35.556;2023-12-07T06:16:56;100174.88;;;-3.38;95.30
73338;BME280;61575;49.908;35.556;2023-12-07T06:20:00;100167.91;;;-3.39;94.99
73338;BME280;61575;49.908;35.556;2023-12-07T06:23:03;100158.53;;;-3.44;95.51
73338;BME280;61575;49.908;35.556;2023-12-07T06:26:05;100168.06;;;-3.42;95.61
73338;BME280;61575;49.908;35.556;2023-12-07T06:29:08;100167.13;;;-3.41;95.43
73338;BME280;61575;49.908;35.556;2023-12-07T06:32:10;100161.28;;;-3.47;95.50
73338;BME280;61575;49.908;35.556;2023-12-07T06:35:12;100168.19;;;-3.45;95.99
73338;BME280;61575;49.908;35.556;2023-12-07T06:38:14;100166.47;;;-3.46;95.50
73338;BME280;61575;49.908;35.556;2023-12-07T06:41:16;100168.25;;;-3.46;95.53
73338;BME280;61575;49.908;35.556;2023-12-07T06:44:18;100157.47;;;-3.40;95.80
73338;BME280;61575;49.908;35.556;2023-12-07T06:47:20;100160.56;;;-3.30;95.27
73338;BME280;61575;49.908;35.556;2023-12-07T06:50:23;100159.56;;;-3.28;94.93
73338;BME280;61575;49.908;35.556;2023-12-07T06:53:25;100163.97;;;-3.28;94.26
73338;BME280;61575;49.908;35.556;2023-12-07T06:56:27;100153.47;;;-3.28;94.15
73338;BME280;61575;49.908;35.556;2023-12-07T06:59:29;100158.47;;;-3.22;94.02
73338;BME280;61575;49.908;35.556;2023-12-07T07:02:31;100163.06;;;-3.27;93.84
73338;BME280;61575;49.908;35.556;2023-12-07T07:05:33;100172.06;;;-3.33;93.62
73338;BME280;61575;49.908;35.556;2023-12-07T07:08:35;100159.78;;;-3.32;94.06
73338;BME280;61575;49.908;35.556;2023-12-07T07:11:38;100182.69;;;-3.36;94.22
73338;BME280;61575;49.908;35.556;2023-12-07T07:14:40;100172.25;;;-3.38;94.39
73338;BME280;61575;49.908;35.556;2023-12-07T07:17:42;100170.41;;;-3.35;94.70
73338;BME280;61575;49.908;35.556;2023-12-07T07:20:44;100155.44;;;-3.33;94.61
73338;BME280;61575;49.908;35.556;2023-12-07T07:23:46;100162.28;;;-3.29;94.74
73338;BME280;61575;49.908;35.556;2023-12-07T07:26:48;100166.22;;;-3.40;95.69
73338;BME280;61575;49.908;35.556;2023-12-07T07:29:50;100173.31;;;-3.42;95.12
73338;BME280;61575;49.908;35.556;2023-12-07T07:32:53;100171.59;;;-3.43;95.67
73338;BME280;61575;49.908;35.556;2023-12-07T07:35:55;100165.63;;;-3.46;95.70
73338;BME280;61575;49.908;35.556;2023-12-07T07:39:00;100161.16;;;-3.44;95.92
73338;BME280;61575;49.908;35.556;2023-12-07T07:42:02;100168.97;;;-3.43;95.83
73338;BME280;61575;49.908;35.556;2023-12-07T07:45:06;100165.75;;;-3.49;96.34
73338;BME280;61575;49.908;35.556;2023-12-07T07:48:08;100179.53;;;-3.44;96.15
73338;BME280;61575;49.908;35.556;2023-12-07T07:51:10;100175.94;;;-3.42;95.71
73338;BME280;61575;49.908;35.556;2023-12-07T07:54:12;100177.50;;;-3.38;95.96
73338;BME280;61575;49.908;35.556;2023-12-07T07:57:14;100169.50;;;-3.34;96.06
73338;BME280;61575;49.908;35.556;2023-12-07T08:00:16;100167.53;;;-3.29;95.99
73338;BME280;61575;49.908;35.556;2023-12-07T08:03:19;100170.00;;;-3.26;95.54
73338;BME280;61575;49.908;35.556;2023-12-07T08:06:21;100170.72;;;-3.23;95.21
73338;BME280;61575;49.908;35.556;2023-12-07T08:09:23;100173.69;;;-3.30;95.71
73338;BME280;61575;49.908;35.556;2023-12-07T08:12:25;100170.00;;;-3.26;95.68
73338;BME280;61575;49.908;35.556;2023-12-07T08:15:27;100164.69;;;-3.25;95.71
73338;BME280;61575;49.908;35.556;2023-12-07T08:18:30;100165.53;;;-3.24;95.54
73338;BME280;61575;49.908;35.556;2023-12-07T08:21:32;100163.97;;;-3.28;95.48
73338;BME280;61575;49.908;35.556;2023-12-07T08:24:34;100165.94;;;-3.13;95.05
73338;BME280;61575;49.908;35.556;2023-12-07T08:27:38;100171.31;;;-3.16;95.10
73338;BME280;61575;49.908;35.556;2023-12-07T08:30:40;100164.22;;;-3.14;94.62
73338;BME280;61575;49.908;35.556;2023-12-07T08:33:42;100170.97;;;-3.09;94.20
73338;BME280;61575;49.908;35.556;2023-12-07T08:36:45;100164.09;;;-3.11;94.54
73338;BME280;61575;49.908;35.556;2023-12-07T08:39:48;100168.78;;;-2.99;94.32
73338;BME280;61575;49.908;35.556;2023-12-07T08:42:50;100160.47;;;-3.09;93.65
73338;BME280;61575;49.908;35.556;2023-12-07T08:45:53;100163.81;;;-3.05;93.32
73338;BME280;61575;49.908;35.556;2023-12-07T08:49:02;100149.69;;;-3.02;93.37
73338;BME280;61575;49.908;35.556;2023-12-07T08:52:04;100150.03;;;-3.10;93.06
73338;BME280;61575;49.908;35.556;2023-12-07T08:55:26;100154.94;;;-3.02;92.71
73338;BME280;61575;49.908;35.556;2023-12-07T08:58:28;100148.91;;;-3.04;92.96
73338;BME280;61575;49.908;35.556;2023-12-07T09:01:30;100155.72;;;-3.00;92.87
73338;BME280;61575;49.908;35.556;2023-12-07T09:04:35;100149.56;;;-2.99;92.59
73338;BME280;61575;49.908;35.556;2023-12-07T09:07:37;100142.28;;;-3.13;93.06
73338;BME280;61575;49.908;35.556;2023-12-07T09:10:39;100148.69;;;-3.00;92.31
73338;BME280;61575;49.908;35.556;2023-12-07T09:13:42;100149.28;;;-2.93;92.70
73338;BME280;61575;49.908;35.556;2023-12-07T09:16:45;100149.41;;;-2.96;92.42
73338;BME280;61575;49.908;35.556;2023-12-07T09:19:47;100153.16;;;-3.02;92.46
73338;BME280;61575;49.908;35.556;2023-12-07T09:22:49;100144.16;;;-2.96;92.46
73338;BME280;61575;49.908;35.556;2023-12-07T09:25:52;100139.53;;;-2.91;92.62
73338;BME280;61575;49.908;35.556;2023-12-07T09:28:54;100137.69;;;-2.89;92.17
73338;BME280;61575;49.908;35.556;2023-12-07T09:31:56;100140.41;;;-2.91;92.45
73338;BME280;61575;49.908;35.556;2023-12-07T09:34:58;100142.53;;;-2.99;92.12
73338;BME280;61575;49.908;35.556;2023-12-07T09:38:00;100144.88;;;-2.93;92.06
73338;BME280;61575;49.908;35.556;2023-12-07T09:41:03;100147.13;;;-3.04;91.83
73338;BME280;61575;49.908;35.556;2023-12-07T09:44:05;100144.16;;;-2.96;91.71
73338;BME280;61575;49.908;35.556;2023-12-07T09:47:08;100139.63;;;-2.93;92.02
73338;BME280;61575;49.908;35.556;2023-12-07T09:50:10;100142.69;;;-2.83;91.89
73338;BME280;61575;49.908;35.556;2023-12-07T09:53:13;100138.69;;;-2.92;91.65
73338;BME280;61575;49.908;35.556;2023-12-07T09:56:15;100139.63;;;-2.93;91.32
73338;BME280;61575;49.908;35.556;2023-12-07T09:59:18;100133.78;;;-2.81;91.21
73338;BME280;61575;49.908;35.556;2023-12-07T10:02:20;100133.44;;;-2.73;91.03
73338;BME280;61575;49.908;35.556;2023-12-07T10:05:23;100124.41;;;-2.67;91.28
73338;BME280;61575;49.908;35.556;2023-12-07T10:08:29;100122.22;;;-2.77;90.88
73338;BME280;61575;49.908;35.556;2023-12-07T10:11:32;100127.25;;;-2.72;90.48
73338;BME280;61575;49.908;35.556;2023-12-07T10:14:34;100128.53;;;-2.81;90.48
73338;BME280;61575;49.908;35.556;2023-12-07T10:17:55;100140.03;;;-2.83;90.77
73338;BME280;61575;49.908;35.556;2023-12-07T10:20:59;100134.66;;;-2.80;90.69
73338;BME280;61575;49.908;35.556;2023-12-07T10:24:01;100134.50;;;-2.77;90.85
73338;BME280;61575;49.908;35.556;2023-12-07T10:27:05;100130.19;;;-2.78;90.62
73338;BME280;61575;49.908;35.556;2023-12-07T10:30:09;100127.03;;;-2.67;90.41
73338;BME280;61575;49.908;35.556;2023-12-07T10:33:11;100137.72;;;-2.70;90.69
73338;BME280;61575;49.908;35.556;2023-12-07T10:36:15;100119.03;;;-2.64;90.58
73338;BME280;61575;49.908;35.556;2023-12-07T10:39:18;100129.69;;;-2.67;90.41
73338;BME280;61575;49.908;35.556;2023-12-07T10:42:32;100115.91;;;-2.72;90.67
73338;BME280;61575;49.908;35.556;2023-12-07T10:45:35;100128.25;;;-2.75;90.60
73338;BME280;61575;49.908;35.556;2023-12-07T10:48:39;100127.47;;;-2.77;90.40
73338;BME280;61575;49.908;35.556;2023-12-07T10:55:01;100127.41;;;-2.75;90.47
73338;BME280;61575;49.908;35.556;2023-12-07T10:58:05;100116.47;;;-2.66;90.16
73338;BME280;61575;49.908;35.556;2023-12-07T11:01:09;100124.28;;;-2.64;90.25
73338;BME280;61575;49.908;35.556;2023-12-07T11:04:13;100127.69;;;-2.62;90.06
73338;BME280;61575;49.908;35.556;2023-12-07T11:07:18;100115.31;;;-2.60;90.11
73338;BME280;61575;49.908;35.556;2023-12-07T11:10:38;100111.91;;;-2.62;90.03
73338;BME280;61575;49.908;35.556;2023-12-07T11:13:49;100119.88;;;-2.64;90.26
73338;BME280;61575;49.908;35.556;2023-12-07T11:16:53;100120.72;;;-2.63;89.83
73338;BME280;61575;49.908;35.556;2023-12-07T11:19:55;100120.66;;;-2.62;89.65
73338;BME280;61575;49.908;35.556;2023-12-07T11:22:59;100116.88;;;-2.56;89.29
73338;BME280;61575;49.908;35.556;2023-12-07T11:26:02;100111.53;;;-2.55;89.51
73338;BME280;61575;49.908;35.556;2023-12-07T11:29:05;100123.84;;;-2.55;89.15
73338;BME280;61575;49.908;35.556;2023-12-07T11:32:10;100117.16;;;-2.62;89.26
73338;BME280;61575;49.908;35.556;2023-12-07T11:35:20;100129.09;;;-2.55;89.47
73338;BME280;61575;49.908;35.556;2023-12-07T11:38:22;100115.09;;;-2.56;89.33
73338;BME280;61575;49.908;35.556;2023-12-07T11:41:29;100119.59;;;-2.58;89.05
73338;BME280;61575;49.908;35.556;2023-12-07T11:44:34;100123.69;;;-2.52;89.22
73338;BME280;61575;49.908;35.556;2023-12-07T11:47:39;100123.00;;;-2.56;89.16
73338;BME280;61575;49.908;35.556;2023-12-07T11:51:00;100126.41;;;-2.54;89.15
73338;BME280;61575;49.908;35.556;2023-12-07T11:54:02;100128.03;;;-2.51;88.65
73338;BME280;61575;49.908;35.556;2023-12-07T11:57:04;100132.50;;;-2.53;88.98
73338;BME280;61575;49.908;35.556;2023-12-07T12:00:07;100129.81;;;-2.52;88.60
73338;BME280;61575;49.908;35.556;2023-12-07T12:03:09;100134.22;;;-2.52;88.87
73338;BME280;61575;49.908;35.556;2023-12-07T12:06:12;100133.50;;;-2.56;88.89
73338;BME280;61575;49.908;35.556;2023-12-07T12:09:15;100142.03;;;-2.51;88.82
73338;BME280;61575;49.908;35.556;2023-12-07T12:12:27;100137.63;;;-2.50;88.86
73338;BME280;61575;49.908;35.556;2023-12-07T12:15:29;100140.97;;;-2.47;88.52
73338;BME280;61575;49.908;35.556;2023-12-07T12:18:33;100138.47;;;-2.50;88.68
73338;BME280;61575;49.908;35.556;2023-12-07T12:21:36;100143.88;;;-2.53;88.81
73338;BME280;61575;49.908;35.556;2023-12-07T12:24:40;100136.69;;;-2.49;88.88
73338;BME280;61575;49.908;35.556;2023-12-07T12:27:43;100143.66;;;-2.48;88.86
73338;BME280;61575;49.908;35.556;2023-12-07T12:30:46;100139.41;;;-2.51;88.99
73338;BME280;61575;49.908;35.556;2023-12-07T12:33:48;100145.28;;;-2.46;88.66
73338;BME280;61575;49.908;35.556;2023-12-07T12:36:56;100140.88;;;-2.45;88.64
73338;BME280;61575;49.908;35.556;2023-12-07T12:39:58;100145.38;;;-2.47;88.56
73338;BME280;61575;49.908;35.556;2023-12-07T12:43:05;100150.78;;;-2.50;88.62
73338;BME280;61575;49.908;35.556;2023-12-07T12:46:07;100141.09;;;-2.50;88.50
73338;BME280;61575;49.908;35.556;2023-12-07T12:49:10;100147.16;;;-2.48;88.28
73338;BME280;61575;49.908;35.556;2023-12-07T12:52:15;100139.34;;;-2.68;88.65
73338;BME280;61575;49.908;35.556;2023-12-07T12:55:21;100141.69;;;-2.62;88.52
73338;BME280;61575;49.908;35.556;2023-12-07T12:58:24;100144.44;;;-2.65;88.85
73338;BME280;61575;49.908;35.556;2023-12-07T13:01:26;100129.81;;;-2.70;88.50
73338;BME280;61575;49.908;35.556;2023-12-07T13:04:29;100134.78;;;-2.64;88.73
73338;BME280;61575;49.908;35.556;2023-12-07T13:07:41;100133.78;;;-2.62;88.40
73338;BME280;61575;49.908;35.556;2023-12-07T13:10:43;100136.56;;;-2.65;88.62
73338;BME280;61575;49.908;35.556;2023-12-07T13:13:46;100140.13;;;-2.66;88.90
73338;BME280;61575;49.908;35.556;2023-12-07T13:16:51;100139.75;;;-2.58;88.20
73338;BME280;61575;49.908;35.556;2023-12-07T13:19:54;100149.78;;;-2.66;88.90
73338;BME280;61575;49.908;35.556;2023-12-07T13:22:56;100147.28;;;-2.69;88.58
73338;BME280;61575;49.908;35.556;2023-12-07T13:25:58;100141.69;;;-2.62;88.45
73338;BME280;61575;49.908;35.556;2023-12-07T13:29:00;100143.47;;;-2.62;88.93
73338;BME280;61575;49.908;35.556;2023-12-07T13:32:03;100147.22;;;-2.68;88.84
73338;BME280;61575;49.908;35.556;2023-12-07T13:35:06;100155.19;;;-2.69;88.56
73338;BME280;61575;49.908;35.556;2023-12-07T13:38:12;100163.22;;;-2.72;89.00
73338;BME280;61575;49.908;35.556;2023-12-07T13:41:14;100165.19;;;-2.78;89.30
73338;BME280;61575;49.908;35.556;2023-12-07T13:44:16;100158.59;;;-2.67;88.99
73338;BME280;61575;49.908;35.556;2023-12-07T13:47:29;100164.78;;;-2.68;89.15
73338;BME280;61575;49.908;35.556;2023-12-07T13:50:34;100175.50;;;-2.73;89.16
73338;BME280;61575;49.908;35.556;2023-12-07T13:53:36;100174.22;;;-2.64;89.29
73338;BME280;61575;49.908;35.556;2023-12-07T13:56:39;100175.94;;;-2.63;89.40
73338;BME280;61575;49.908;35.556;2023-12-07T13:59:42;100177.00;;;-2.67;89.23
73338;BME280;61575;49.908;35.556;2023-12-07T14:02:44;100166.75;;;-2.74;88.99
73338;BME280;61575;49.908;35.556;2023-12-07T14:05:46;100171.03;;;-2.71;89.23
73338;BME280;61575;49.908;35.556;2023-12-07T14:08:49;100163.56;;;-2.61;89.39
73338;BME280;61575;49.908;35.556;2023-12-07T14:11:52;100169.09;;;-2.67;89.58
73338;BME280;61575;49.908;35.556;2023-12-07T14:14:54;100174.56;;;-2.72;89.18
73338;BME280;61575;49.908;35.556;2023-12-07T14:17:57;100175.28;;;-2.68;89.07
73338;BME280;61575;49.908;35.556;2023-12-07T14:21:01;100178.00;;;-2.70;89.09
73338;BME280;61575;49.908;35.556;2023-12-07T14:24:24;100179.63;;;-2.67;89.18
73338;BME280;61575;49.908;35.556;2023-12-07T14:27:26;100169.91;;;-2.65;89.08
73338;BME280;61575;49.908;35.556;2023-12-07T14:30:28;100178.69;;;-2.66;88.70
73338;BME280;61575;49.908;35.556;2023-12-07T14:33:33;100165.19;;;-2.59;88.47
73338;BME280;61575;49.908;35.556;2023-12-07T14:36:35;100169.75;;;-2.62;88.81
73338;BME280;61575;49.908;35.556;2023-12-07T14:39:41;100168.41;;;-2.71;88.57
73338;BME280;61575;49.908;35.556;2023-12-07T14:42:43;100168.09;;;-2.84;88.97
73338;BME280;61575;49.908;35.556;2023-12-07T14:45:47;100175.28;;;-2.68;88.92
73338;BME280;61575;49.908;35.556;2023-12-07T14:48:49;100183.09;;;-2.67;88.31
73338;BME280;61575;49.908;35.556;2023-12-07T14:51:54;100174.22;;;-2.64;88.59
73338;BME280;61575;49.908;35.556;2023-12-07T14:54:57;100174.88;;;-2.59;88.20
73338;BME280;61575;49.908;35.556;2023-12-07T14:57:59;100168.53;;;-2.55;88.07
73338;BME280;61575;49.908;35.556;2023-12-07T15:01:02;100177.06;;;-2.69;87.91
73338;BME280;61575;49.908;35.556;2023-12-07T15:04:05;100181.41;;;-2.68;88.11
73338;BME280;61575;49.908;35.556;2023-12-07T15:07:08;100192.84;;;-2.69;88.11
73338;BME280;61575;49.908;35.556;2023-12-07T15:10:10;100192.34;;;-2.58;87.87
73338;BME280;61575;49.908;35.556;2023-12-07T15:13:12;100207.28;;;-2.59;87.71
73338;BME280;61575;49.908;35.556;2023-12-07T15:16:15;100206.13;;;-2.53;87.36
73338;BME280;61575;49.908;35.556;2023-12-07T15:19:17;100204.56;;;-2.57;87.50
73338;BME280;61575;49.908;35.556;2023-12-07T15:22:19;100202.28;;;-2.65;87.15
73338;BME280;61575;49.908;35.556;2023-12-07T15:25:21;100208.41;;;-2.64;87.40
73338;BME280;61575;49.908;35.556;2023-12-07T15:28:24;100210.63;;;-2.55;87.25
73338;BME280;61575;49.908;35.556;2023-12-07T15:31:27;100208.69;;;-2.52;86.86
73338;BME280;61575;49.908;35.556;2023-12-07T15:34:29;100209.03;;;-2.59;87.40
73338;BME280;61575;49.908;35.556;2023-12-07T15:37:41;100207.19;;;-2.57;87.46
73338;BME280;61575;49.908;35.556;2023-12-07T15:40:43;100209.03;;;-2.59;87.11
73338;BME280;61575;49.908;35.556;2023-12-07T15:43:45;100201.94;;;-2.57;86.97
73338;BME280;61575;49.908;35.556;2023-12-07T15:46:47;100205.44;;;-2.57;86.92
73338;BME280;61575;49.908;35.556;2023-12-07T15:49:49;100205.28;;;-2.54;87.00
73338;BME280;61575;49.908;35.556;2023-12-07T15:52:51;100206.13;;;-2.53;86.92